Merion Park, Pennsylvania
Current Conditions -  °F | °C
As of 11:54 AM on Thursday 30 Oct 2014 (Local Time) from KPHL Reporting Station
Few Clouds Few Clouds  
Wind Chill: 58°   Ceiling: Unl
Heat Index: 58°   Visibility: 10mi
Dew Point: 38°   Wind: 10mph
Humidity: 47%   Direction: 10°N
Pressure: 30.03"   Gusts: NA
Location:  40.0023°N, 75.2493°W
Report Text: KPHL 301554Z 01009KT 10SM FEW038 FEW065 14/03 A3003 RMK AO2 SLP167 T01440033
Loading
Personal Weather Stations






























Interactive Weather Map
Tropical Storm Tracking
New forecast layout! Learn more

10-Day Weather Forecast

Advertisements
Track Severe Weather on mobile